sensor_id;sensor_type;location;lat;lon;timestamp;temperature;humidity
24450;DHT22;13349;50.984;5.822;2024-03-02T00:01:24;9.90;99.90
24450;DHT22;13349;50.984;5.822;2024-03-02T00:03:51;9.90;99.90
24450;DHT22;13349;50.984;5.822;2024-03-02T00:06:19;9.90;99.90
24450;DHT22;13349;50.984;5.822;2024-03-02T00:08:46;10.00;99.90
24450;DHT22;13349;50.984;5.822;2024-03-02T00:11:15;10.00;99.90
24450;DHT22;13349;50.984;5.822;2024-03-02T00:13:42;9.90;99.90
24450;DHT22;13349;50.984;5.822;2024-03-02T00:16:09;10.00;99.90
24450;DHT22;13349;50.984;5.822;2024-03-02T00:18:36;10.00;99.90
24450;DHT22;13349;50.984;5.822;2024-03-02T00:21:04;10.00;99.90
24450;DHT22;13349;50.984;5.822;2024-03-02T00:23:34;10.00;99.90
24450;DHT22;13349;50.984;5.822;2024-03-02T00:26:02;10.00;99.90
24450;DHT22;13349;50.984;5.822;2024-03-02T00:28:31;10.10;99.90
24450;DHT22;13349;50.984;5.822;2024-03-02T00:30:59;10.10;99.90
24450;DHT22;13349;50.984;5.822;2024-03-02T00:33:30;10.00;99.90
24450;DHT22;13349;50.984;5.822;2024-03-02T00:35:57;10.10;99.90
24450;DHT22;13349;50.984;5.822;2024-03-02T00:38:25;10.10;99.90
24450;DHT22;13349;50.984;5.822;2024-03-02T00:40:53;10.00;99.90
24450;DHT22;13349;50.984;5.822;2024-03-02T00:46:12;10.00;99.90
24450;DHT22;13349;50.984;5.822;2024-03-02T00:48:42;10.00;99.90
24450;DHT22;13349;50.984;5.822;2024-03-02T00:51:11;10.00;99.90
24450;DHT22;13349;50.984;5.822;2024-03-02T00:53:38;10.00;99.90
24450;DHT22;13349;50.984;5.822;2024-03-02T00:56:05;10.00;99.90
24450;DHT22;13349;50.984;5.822;2024-03-02T00:58:35;9.90;99.90
24450;DHT22;13349;50.984;5.822;2024-03-02T01:01:02;10.00;99.90
24450;DHT22;13349;50.984;5.822;2024-03-02T01:03:31;10.00;99.90
24450;DHT22;13349;50.984;5.822;2024-03-02T01:05:58;10.00;99.90
24450;DHT22;13349;50.984;5.822;2024-03-02T01:08:25;9.70;1.00
24450;DHT22;13349;50.984;5.822;2024-03-02T01:10:52;8.80;1.00
24450;DHT22;13349;50.984;5.822;2024-03-02T01:13:20;8.30;1.00
24450;DHT22;13349;50.984;5.822;2024-03-02T01:15:47;8.00;1.00
24450;DHT22;13349;50.984;5.822;2024-03-02T01:18:14;7.80;99.90
24450;DHT22;13349;50.984;5.822;2024-03-02T01:20:43;7.70;99.90
24450;DHT22;13349;50.984;5.822;2024-03-02T01:23:10;7.60;1.00
24450;DHT22;13349;50.984;5.822;2024-03-02T01:25:37;7.50;1.00
24450;DHT22;13349;50.984;5.822;2024-03-02T01:28:04;7.50;1.00
24450;DHT22;13349;50.984;5.822;2024-03-02T01:30:31;7.50;99.90
24450;DHT22;13349;50.984;5.822;2024-03-02T01:32:58;7.60;1.00
24450;DHT22;13349;50.984;5.822;2024-03-02T01:35:25;7.70;1.00
24450;DHT22;13349;50.984;5.822;2024-03-02T01:37:54;7.70;1.00
24450;DHT22;13349;50.984;5.822;2024-03-02T01:40:21;7.60;1.00
24450;DHT22;13349;50.984;5.822;2024-03-02T01:42:51;7.70;1.00
24450;DHT22;13349;50.984;5.822;2024-03-02T01:45:19;7.70;99.90
24450;DHT22;13349;50.984;5.822;2024-03-02T01:47:46;7.70;1.00
24450;DHT22;13349;50.984;5.822;2024-03-02T01:50:13;7.80;99.90
24450;DHT22;13349;50.984;5.822;2024-03-02T01:52:43;7.90;99.90
24450;DHT22;13349;50.984;5.822;2024-03-02T01:55:11;7.80;1.00
24450;DHT22;13349;50.984;5.822;2024-03-02T01:57:38;7.80;99.90
24450;DHT22;13349;50.984;5.822;2024-03-02T02:00:06;7.70;99.90
24450;DHT22;13349;50.984;5.822;2024-03-02T02:02:35;7.60;1.00
24450;DHT22;13349;50.984;5.822;2024-03-02T02:05:02;7.50;99.90
24450;DHT22;13349;50.984;5.822;2024-03-02T02:07:29;7.40;1.00
24450;DHT22;13349;50.984;5.822;2024-03-02T02:09:57;7.30;1.00
24450;DHT22;13349;50.984;5.822;2024-03-02T02:12:25;7.20;1.00
24450;DHT22;13349;50.984;5.822;2024-03-02T02:14:52;7.20;99.90
24450;DHT22;13349;50.984;5.822;2024-03-02T02:17:19;7.20;1.00
24450;DHT22;13349;50.984;5.822;2024-03-02T02:19:46;7.20;1.00
24450;DHT22;13349;50.984;5.822;2024-03-02T02:22:14;7.20;1.00
24450;DHT22;13349;50.984;5.822;2024-03-02T02:24:41;7.20;1.00
24450;DHT22;13349;50.984;5.822;2024-03-02T02:27:09;7.20;84.70
24450;DHT22;13349;50.984;5.822;2024-03-02T02:29:36;7.10;99.90
24450;DHT22;13349;50.984;5.822;2024-03-02T02:32:03;7.10;99.90
24450;DHT22;13349;50.984;5.822;2024-03-02T02:34:30;7.00;99.90
24450;DHT22;13349;50.984;5.822;2024-03-02T02:36:57;7.00;99.90
24450;DHT22;13349;50.984;5.822;2024-03-02T02:39:25;7.00;99.90
24450;DHT22;13349;50.984;5.822;2024-03-02T02:41:52;7.00;99.90
24450;DHT22;13349;50.984;5.822;2024-03-02T02:44:19;7.00;99.90
24450;DHT22;13349;50.984;5.822;2024-03-02T02:46:46;7.20;99.90
24450;DHT22;13349;50.984;5.822;2024-03-02T02:49:13;7.20;99.90
24450;DHT22;13349;50.984;5.822;2024-03-02T02:51:40;7.20;99.90
24450;DHT22;13349;50.984;5.822;2024-03-02T02:54:07;7.20;99.90
24450;DHT22;13349;50.984;5.822;2024-03-02T02:56:35;7.20;99.90
24450;DHT22;13349;50.984;5.822;2024-03-02T02:59:02;7.20;90.80
24450;DHT22;13349;50.984;5.822;2024-03-02T03:01:29;7.30;1.00
24450;DHT22;13349;50.984;5.822;2024-03-02T03:03:56;7.20;1.00
24450;DHT22;13349;50.984;5.822;2024-03-02T03:06:23;7.20;1.00
24450;DHT22;13349;50.984;5.822;2024-03-02T03:08:49;7.20;1.00
24450;DHT22;13349;50.984;5.822;2024-03-02T03:11:16;7.20;1.00
24450;DHT22;13349;50.984;5.822;2024-03-02T03:13:45;7.20;1.00
24450;DHT22;13349;50.984;5.822;2024-03-02T03:16:12;7.30;1.00
24450;DHT22;13349;50.984;5.822;2024-03-02T03:18:39;7.30;1.00
24450;DHT22;13349;50.984;5.822;2024-03-02T03:21:05;7.20;1.00
24450;DHT22;13349;50.984;5.822;2024-03-02T03:23:32;7.30;1.00
24450;DHT22;13349;50.984;5.822;2024-03-02T03:25:59;7.20;1.00
24450;DHT22;13349;50.984;5.822;2024-03-02T03:28:26;7.30;1.00
24450;DHT22;13349;50.984;5.822;2024-03-02T03:30:54;7.30;1.00
24450;DHT22;13349;50.984;5.822;2024-03-02T03:33:21;7.30;1.00
24450;DHT22;13349;50.984;5.822;2024-03-02T03:35:48;7.30;1.00
24450;DHT22;13349;50.984;5.822;2024-03-02T03:38:15;7.20;1.00
24450;DHT22;13349;50.984;5.822;2024-03-02T03:40:42;7.20;57.60
24450;DHT22;13349;50.984;5.822;2024-03-02T03:43:10;7.20;99.90
24450;DHT22;13349;50.984;5.822;2024-03-02T03:45:37;7.20;99.90
24450;DHT22;13349;50.984;5.822;2024-03-02T03:48:05;7.20;99.90
24450;DHT22;13349;50.984;5.822;2024-03-02T03:50:32;7.20;99.90
24450;DHT22;13349;50.984;5.822;2024-03-02T03:52:59;7.20;99.90
24450;DHT22;13349;50.984;5.822;2024-03-02T03:55:26;7.20;99.90
24450;DHT22;13349;50.984;5.822;2024-03-02T03:57:53;7.20;99.90
24450;DHT22;13349;50.984;5.822;2024-03-02T04:00:20;7.20;99.90
24450;DHT22;13349;50.984;5.822;2024-03-02T04:02:47;7.20;99.90
24450;DHT22;13349;50.984;5.822;2024-03-02T04:05:15;7.20;99.90
24450;DHT22;13349;50.984;5.822;2024-03-02T04:07:42;7.20;99.90
24450;DHT22;13349;50.984;5.822;2024-03-02T04:10:09;7.20;99.90
24450;DHT22;13349;50.984;5.822;2024-03-02T04:12:38;7.20;99.90
24450;DHT22;13349;50.984;5.822;2024-03-02T04:15:05;7.20;99.90
24450;DHT22;13349;50.984;5.822;2024-03-02T04:17:33;7.20;99.90
24450;DHT22;13349;50.984;5.822;2024-03-02T04:20:01;7.20;99.90
24450;DHT22;13349;50.984;5.822;2024-03-02T04:22:32;7.20;99.90
24450;DHT22;13349;50.984;5.822;2024-03-02T04:24:59;7.20;99.90
24450;DHT22;13349;50.984;5.822;2024-03-02T04:27:26;7.10;99.90
24450;DHT22;13349;50.984;5.822;2024-03-02T04:29:53;7.10;99.90
24450;DHT22;13349;50.984;5.822;2024-03-02T04:32:20;7.10;99.90
24450;DHT22;13349;50.984;5.822;2024-03-02T04:34:46;7.10;99.90
24450;DHT22;13349;50.984;5.822;2024-03-02T04:37:14;7.10;99.90
24450;DHT22;13349;50.984;5.822;2024-03-02T04:39:42;7.20;99.90
24450;DHT22;13349;50.984;5.822;2024-03-02T04:42:09;7.20;99.90
24450;DHT22;13349;50.984;5.822;2024-03-02T04:44:36;7.40;99.90
24450;DHT22;13349;50.984;5.822;2024-03-02T04:47:03;7.40;99.90
24450;DHT22;13349;50.984;5.822;2024-03-02T04:49:30;7.40;99.90
24450;DHT22;13349;50.984;5.822;2024-03-02T04:51:57;7.40;99.90
24450;DHT22;13349;50.984;5.822;2024-03-02T04:54:24;7.40;99.90
24450;DHT22;13349;50.984;5.822;2024-03-02T04:56:52;7.30;99.90
24450;DHT22;13349;50.984;5.822;2024-03-02T04:59:19;7.40;99.90
24450;DHT22;13349;50.984;5.822;2024-03-02T05:01:46;7.40;99.90
24450;DHT22;13349;50.984;5.822;2024-03-02T05:04:13;7.40;1.00
24450;DHT22;13349;50.984;5.822;2024-03-02T05:06:40;7.40;1.00
24450;DHT22;13349;50.984;5.822;2024-03-02T05:09:08;7.50;1.00
24450;DHT22;13349;50.984;5.822;2024-03-02T05:11:34;7.50;69.90
24450;DHT22;13349;50.984;5.822;2024-03-02T05:14:23;7.50;1.00
24450;DHT22;13349;50.984;5.822;2024-03-02T05:16:49;7.40;1.00
24450;DHT22;13349;50.984;5.822;2024-03-02T05:19:17;7.50;99.90
24450;DHT22;13349;50.984;5.822;2024-03-02T05:21:44;7.50;1.00
24450;DHT22;13349;50.984;5.822;2024-03-02T05:24:11;7.50;1.00
24450;DHT22;13349;50.984;5.822;2024-03-02T05:26:41;7.40;99.90
24450;DHT22;13349;50.984;5.822;2024-03-02T05:29:09;7.50;1.00
24450;DHT22;13349;50.984;5.822;2024-03-02T05:31:37;7.50;1.00
24450;DHT22;13349;50.984;5.822;2024-03-02T05:34:04;7.40;1.00
24450;DHT22;13349;50.984;5.822;2024-03-02T05:36:31;7.40;1.00
24450;DHT22;13349;50.984;5.822;2024-03-02T05:38:58;7.30;1.00
24450;DHT22;13349;50.984;5.822;2024-03-02T05:41:25;7.30;1.00
24450;DHT22;13349;50.984;5.822;2024-03-02T05:43:52;7.30;1.00
24450;DHT22;13349;50.984;5.822;2024-03-02T05:46:19;7.30;1.00
24450;DHT22;13349;50.984;5.822;2024-03-02T05:48:47;7.30;1.00
24450;DHT22;13349;50.984;5.822;2024-03-02T05:51:14;7.30;1.00
24450;DHT22;13349;50.984;5.822;2024-03-02T05:53:41;7.30;1.00
24450;DHT22;13349;50.984;5.822;2024-03-02T05:56:08;7.30;1.00
24450;DHT22;13349;50.984;5.822;2024-03-02T05:58:35;7.20;1.00
24450;DHT22;13349;50.984;5.822;2024-03-02T06:01:15;7.30;1.00
24450;DHT22;13349;50.984;5.822;2024-03-02T06:03:43;7.30;99.90
24450;DHT22;13349;50.984;5.822;2024-03-02T06:06:12;7.20;99.90
24450;DHT22;13349;50.984;5.822;2024-03-02T06:08:38;7.10;99.90
24450;DHT22;13349;50.984;5.822;2024-03-02T06:11:05;7.00;99.90
24450;DHT22;13349;50.984;5.822;2024-03-02T06:13:32;6.90;99.90
24450;DHT22;13349;50.984;5.822;2024-03-02T06:15:59;6.80;99.90
24450;DHT22;13349;50.984;5.822;2024-03-02T06:18:26;6.90;99.90
24450;DHT22;13349;50.984;5.822;2024-03-02T06:20:53;6.80;99.90
24450;DHT22;13349;50.984;5.822;2024-03-02T06:23:21;6.70;99.90
24450;DHT22;13349;50.984;5.822;2024-03-02T06:25:48;6.80;1.00
24450;DHT22;13349;50.984;5.822;2024-03-02T06:28:15;6.80;1.00
24450;DHT22;13349;50.984;5.822;2024-03-02T06:30:42;6.90;1.00
24450;DHT22;13349;50.984;5.822;2024-03-02T06:33:09;6.80;1.00
24450;DHT22;13349;50.984;5.822;2024-03-02T06:35:36;6.80;1.00
24450;DHT22;13349;50.984;5.822;2024-03-02T06:38:03;6.80;1.00
24450;DHT22;13349;50.984;5.822;2024-03-02T06:40:32;6.70;1.00
24450;DHT22;13349;50.984;5.822;2024-03-02T06:42:59;6.70;1.00
24450;DHT22;13349;50.984;5.822;2024-03-02T06:45:26;6.70;1.00
24450;DHT22;13349;50.984;5.822;2024-03-02T06:47:54;6.80;1.00
24450;DHT22;13349;50.984;5.822;2024-03-02T06:50:21;6.90;99.90
24450;DHT22;13349;50.984;5.822;2024-03-02T06:52:48;6.90;99.90
24450;DHT22;13349;50.984;5.822;2024-03-02T06:55:15;6.90;99.90
24450;DHT22;13349;50.984;5.822;2024-03-02T06:57:43;6.80;99.90
24450;DHT22;13349;50.984;5.822;2024-03-02T07:00:11;6.90;99.90
24450;DHT22;13349;50.984;5.822;2024-03-02T07:02:39;6.90;99.90
24450;DHT22;13349;50.984;5.822;2024-03-02T07:05:07;7.10;1.00
24450;DHT22;13349;50.984;5.822;2024-03-02T07:07:34;7.00;1.00
24450;DHT22;13349;50.984;5.822;2024-03-02T07:10:02;7.00;1.00
24450;DHT22;13349;50.984;5.822;2024-03-02T07:12:29;7.10;1.00
24450;DHT22;13349;50.984;5.822;2024-03-02T07:14:58;7.20;1.00
24450;DHT22;13349;50.984;5.822;2024-03-02T07:17:54;7.30;1.00
24450;DHT22;13349;50.984;5.822;2024-03-02T07:20:20;7.40;1.00
24450;DHT22;13349;50.984;5.822;2024-03-02T07:22:47;7.60;99.90
24450;DHT22;13349;50.984;5.822;2024-03-02T07:25:14;7.70;99.90
24450;DHT22;13349;50.984;5.822;2024-03-02T07:27:41;7.80;1.00
24450;DHT22;13349;50.984;5.822;2024-03-02T07:30:13;7.90;1.00
24450;DHT22;13349;50.984;5.822;2024-03-02T07:32:41;7.90;1.00
24450;DHT22;13349;50.984;5.822;2024-03-02T07:35:11;8.00;1.00
24450;DHT22;13349;50.984;5.822;2024-03-02T07:37:38;8.10;1.00
24450;DHT22;13349;50.984;5.822;2024-03-02T07:40:05;8.10;99.90
24450;DHT22;13349;50.984;5.822;2024-03-02T07:42:36;8.20;99.90
24450;DHT22;13349;50.984;5.822;2024-03-02T07:45:04;8.30;99.90
24450;DHT22;13349;50.984;5.822;2024-03-02T07:47:33;8.40;90.20
24450;DHT22;13349;50.984;5.822;2024-03-02T07:50:00;8.40;1.00
24450;DHT22;13349;50.984;5.822;2024-03-02T07:52:27;8.40;1.00
24450;DHT22;13349;50.984;5.822;2024-03-02T07:54:54;8.40;1.00
24450;DHT22;13349;50.984;5.822;2024-03-02T07:57:20;8.40;1.00
24450;DHT22;13349;50.984;5.822;2024-03-02T07:59:47;8.50;1.00
24450;DHT22;13349;50.984;5.822;2024-03-02T08:02:14;8.50;1.00
24450;DHT22;13349;50.984;5.822;2024-03-02T08:04:43;8.50;1.00
24450;DHT22;13349;50.984;5.822;2024-03-02T08:07:11;8.50;1.00
24450;DHT22;13349;50.984;5.822;2024-03-02T08:09:38;8.60;1.00
24450;DHT22;13349;50.984;5.822;2024-03-02T08:12:05;8.70;99.90
24450;DHT22;13349;50.984;5.822;2024-03-02T08:14:32;8.80;99.90
24450;DHT22;13349;50.984;5.822;2024-03-02T08:16:59;9.00;99.90
24450;DHT22;13349;50.984;5.822;2024-03-02T08:19:27;9.00;89.00
24450;DHT22;13349;50.984;5.822;2024-03-02T08:21:55;8.90;1.00
24450;DHT22;13349;50.984;5.822;2024-03-02T08:24:22;8.90;1.00
24450;DHT22;13349;50.984;5.822;2024-03-02T08:26:49;9.00;1.00
24450;DHT22;13349;50.984;5.822;2024-03-02T08:29:16;9.10;1.00
24450;DHT22;13349;50.984;5.822;2024-03-02T08:31:43;9.10;1.00
24450;DHT22;13349;50.984;5.822;2024-03-02T08:34:10;9.10;1.00
24450;DHT22;13349;50.984;5.822;2024-03-02T08:36:37;9.20;1.00
24450;DHT22;13349;50.984;5.822;2024-03-02T08:39:05;9.10;1.00
24450;DHT22;13349;50.984;5.822;2024-03-02T08:41:40;9.10;1.00
24450;DHT22;13349;50.984;5.822;2024-03-02T08:44:07;9.20;1.00
24450;DHT22;13349;50.984;5.822;2024-03-02T08:46:34;9.30;1.00
24450;DHT22;13349;50.984;5.822;2024-03-02T08:49:01;9.20;1.00
24450;DHT22;13349;50.984;5.822;2024-03-02T08:51:28;9.20;1.00
24450;DHT22;13349;50.984;5.822;2024-03-02T08:53:55;9.30;1.00
24450;DHT22;13349;50.984;5.822;2024-03-02T08:56:24;9.50;1.00
24450;DHT22;13349;50.984;5.822;2024-03-02T08:58:51;9.60;1.00
24450;DHT22;13349;50.984;5.822;2024-03-02T09:01:18;9.70;1.00
24450;DHT22;13349;50.984;5.822;2024-03-02T09:03:45;9.90;99.90
24450;DHT22;13349;50.984;5.822;2024-03-02T09:06:14;9.80;99.90
24450;DHT22;13349;50.984;5.822;2024-03-02T09:08:42;9.80;99.90
24450;DHT22;13349;50.984;5.822;2024-03-02T09:11:09;10.10;99.90
24450;DHT22;13349;50.984;5.822;2024-03-02T09:13:38;10.30;70.60
24450;DHT22;13349;50.984;5.822;2024-03-02T09:16:06;10.90;1.00
24450;DHT22;13349;50.984;5.822;2024-03-02T09:18:36;11.00;1.00
24450;DHT22;13349;50.984;5.822;2024-03-02T09:21:03;11.20;1.00
24450;DHT22;13349;50.984;5.822;2024-03-02T09:23:30;11.10;1.00
24450;DHT22;13349;50.984;5.822;2024-03-02T09:25:59;11.10;1.00
24450;DHT22;13349;50.984;5.822;2024-03-02T09:28:26;11.10;1.00
24450;DHT22;13349;50.984;5.822;2024-03-02T09:30:55;11.20;1.00
24450;DHT22;13349;50.984;5.822;2024-03-02T09:33:21;11.20;1.00
24450;DHT22;13349;50.984;5.822;2024-03-02T09:35:48;11.40;1.00
24450;DHT22;13349;50.984;5.822;2024-03-02T09:38:15;11.60;1.00
24450;DHT22;13349;50.984;5.822;2024-03-02T09:40:42;11.20;99.90
24450;DHT22;13349;50.984;5.822;2024-03-02T09:43:12;11.30;99.90
24450;DHT22;13349;50.984;5.822;2024-03-02T09:45:40;11.40;99.90
24450;DHT22;13349;50.984;5.822;2024-03-02T09:48:08;11.60;99.90
24450;DHT22;13349;50.984;5.822;2024-03-02T09:50:35;11.70;99.90
24450;DHT22;13349;50.984;5.822;2024-03-02T09:53:02;11.80;99.90
24450;DHT22;13349;50.984;5.822;2024-03-02T09:55:29;11.80;99.90
24450;DHT22;13349;50.984;5.822;2024-03-02T09:57:56;11.70;99.90
24450;DHT22;13349;50.984;5.822;2024-03-02T10:00:23;11.60;99.90
24450;DHT22;13349;50.984;5.822;2024-03-02T10:02:50;11.70;99.90
24450;DHT22;13349;50.984;5.822;2024-03-02T10:05:25;11.70;99.90
24450;DHT22;13349;50.984;5.822;2024-03-02T10:08:00;11.60;99.90
24450;DHT22;13349;50.984;5.822;2024-03-02T10:10:35;12.00;99.90
24450;DHT22;13349;50.984;5.822;2024-03-02T10:13:05;12.00;99.90
24450;DHT22;13349;50.984;5.822;2024-03-02T10:15:32;11.90;99.90
24450;DHT22;13349;50.984;5.822;2024-03-02T10:17:59;11.90;99.90
24450;DHT22;13349;50.984;5.822;2024-03-02T10:20:27;11.70;99.90
24450;DHT22;13349;50.984;5.822;2024-03-02T10:22:55;11.80;99.90
24450;DHT22;13349;50.984;5.822;2024-03-02T10:25:28;11.70;98.00
24450;DHT22;13349;50.984;5.822;2024-03-02T10:27:56;11.90;97.90
24450;DHT22;13349;50.984;5.822;2024-03-02T10:30:23;12.20;95.50
24450;DHT22;13349;50.984;5.822;2024-03-02T10:32:50;12.20;74.60
24450;DHT22;13349;50.984;5.822;2024-03-02T10:35:17;12.10;50.90
24450;DHT22;13349;50.984;5.822;2024-03-02T10:37:46;12.30;47.40
24450;DHT22;13349;50.984;5.822;2024-03-02T10:40:14;12.40;29.70
24450;DHT22;13349;50.984;5.822;2024-03-02T10:42:41;12.30;28.60
24450;DHT22;13349;50.984;5.822;2024-03-02T10:45:09;12.20;7.70
24450;DHT22;13349;50.984;5.822;2024-03-02T10:47:36;12.40;9.20
24450;DHT22;13349;50.984;5.822;2024-03-02T10:50:04;12.50;9.10
24450;DHT22;13349;50.984;5.822;2024-03-02T10:52:34;12.60;1.00
24450;DHT22;13349;50.984;5.822;2024-03-02T10:55:02;12.50;1.00
24450;DHT22;13349;50.984;5.822;2024-03-02T10:57:34;12.50;1.00
24450;DHT22;13349;50.984;5.822;2024-03-02T11:00:05;12.60;1.00
24450;DHT22;13349;50.984;5.822;2024-03-02T11:02:32;12.80;1.00
24450;DHT22;13349;50.984;5.822;2024-03-02T11:05:01;13.00;1.00
24450;DHT22;13349;50.984;5.822;2024-03-02T11:07:33;13.00;1.00
24450;DHT22;13349;50.984;5.822;2024-03-02T11:10:02;12.90;1.00
24450;DHT22;13349;50.984;5.822;2024-03-02T11:12:36;13.30;1.00
24450;DHT22;13349;50.984;5.822;2024-03-02T11:15:03;13.30;1.00
24450;DHT22;13349;50.984;5.822;2024-03-02T11:17:31;13.20;1.00
24450;DHT22;13349;50.984;5.822;2024-03-02T11:19:58;13.00;1.00
24450;DHT22;13349;50.984;5.822;2024-03-02T11:22:25;13.30;1.00
24450;DHT22;13349;50.984;5.822;2024-03-02T11:24:52;13.40;1.00
24450;DHT22;13349;50.984;5.822;2024-03-02T11:30:03;13.20;1.00
24450;DHT22;13349;50.984;5.822;2024-03-02T11:32:30;13.20;1.00
24450;DHT22;13349;50.984;5.822;2024-03-02T11:34:57;13.30;1.00
24450;DHT22;13349;50.984;5.822;2024-03-02T11:37:24;13.40;1.00
24450;DHT22;13349;50.984;5.822;2024-03-02T11:39:51;13.40;1.00
24450;DHT22;13349;50.984;5.822;2024-03-02T11:42:18;13.40;1.00
24450;DHT22;13349;50.984;5.822;2024-03-02T11:44:46;13.20;1.00
24450;DHT22;13349;50.984;5.822;2024-03-02T11:47:15;13.50;1.00
24450;DHT22;13349;50.984;5.822;2024-03-02T11:49:43;13.40;1.00
24450;DHT22;13349;50.984;5.822;2024-03-02T11:52:12;13.50;1.00
24450;DHT22;13349;50.984;5.822;2024-03-02T11:54:39;13.60;1.00
24450;DHT22;13349;50.984;5.822;2024-03-02T11:57:12;13.70;1.00
24450;DHT22;13349;50.984;5.822;2024-03-02T11:59:39;14.10;1.00
24450;DHT22;13349;50.984;5.822;2024-03-02T12:02:06;13.90;1.00
24450;DHT22;13349;50.984;5.822;2024-03-02T12:04:34;14.00;1.00
24450;DHT22;13349;50.984;5.822;2024-03-02T12:07:01;14.20;1.00
24450;DHT22;13349;50.984;5.822;2024-03-02T12:09:28;14.50;1.00
24450;DHT22;13349;50.984;5.822;2024-03-02T12:12:02;14.60;1.00
24450;DHT22;13349;50.984;5.822;2024-03-02T12:14:30;14.50;1.00
24450;DHT22;13349;50.984;5.822;2024-03-02T12:16:57;14.20;1.00
24450;DHT22;13349;50.984;5.822;2024-03-02T12:19:25;14.30;1.00
24450;DHT22;13349;50.984;5.822;2024-03-02T12:21:53;14.30;1.00
24450;DHT22;13349;50.984;5.822;2024-03-02T12:24:21;14.60;1.00
24450;DHT22;13349;50.984;5.822;2024-03-02T12:26:48;14.80;1.00
24450;DHT22;13349;50.984;5.822;2024-03-02T12:29:15;14.70;1.00
24450;DHT22;13349;50.984;5.822;2024-03-02T12:31:42;14.70;1.00
24450;DHT22;13349;50.984;5.822;2024-03-02T12:34:11;15.20;1.00
24450;DHT22;13349;50.984;5.822;2024-03-02T12:36:38;14.70;1.00
24450;DHT22;13349;50.984;5.822;2024-03-02T12:39:08;15.00;1.00
24450;DHT22;13349;50.984;5.822;2024-03-02T12:41:36;15.50;1.00
24450;DHT22;13349;50.984;5.822;2024-03-02T12:44:03;15.30;1.00
24450;DHT22;13349;50.984;5.822;2024-03-02T12:46:30;15.30;1.00
24450;DHT22;13349;50.984;5.822;2024-03-02T12:48:57;15.40;1.00
24450;DHT22;13349;50.984;5.822;2024-03-02T12:51:24;15.50;1.00
24450;DHT22;13349;50.984;5.822;2024-03-02T12:53:54;15.50;1.00
24450;DHT22;13349;50.984;5.822;2024-03-02T12:56:24;14.90;1.00
24450;DHT22;13349;50.984;5.822;2024-03-02T12:58:52;14.90;1.00
24450;DHT22;13349;50.984;5.822;2024-03-02T13:01:19;14.50;1.00
24450;DHT22;13349;50.984;5.822;2024-03-02T13:03:48;14.40;1.00
24450;DHT22;13349;50.984;5.822;2024-03-02T13:06:16;15.10;1.00
24450;DHT22;13349;50.984;5.822;2024-03-02T13:08:44;15.30;1.00
24450;DHT22;13349;50.984;5.822;2024-03-02T13:11:18;15.00;1.00
24450;DHT22;13349;50.984;5.822;2024-03-02T13:13:46;14.70;1.00
24450;DHT22;13349;50.984;5.822;2024-03-02T13:16:13;14.70;1.00
24450;DHT22;13349;50.984;5.822;2024-03-02T13:18:41;14.70;1.00
24450;DHT22;13349;50.984;5.822;2024-03-02T13:21:08;14.90;1.00
24450;DHT22;13349;50.984;5.822;2024-03-02T13:23:35;14.80;1.00
24450;DHT22;13349;50.984;5.822;2024-03-02T13:26:02;15.10;1.00
24450;DHT22;13349;50.984;5.822;2024-03-02T13:28:30;14.70;1.00
24450;DHT22;13349;50.984;5.822;2024-03-02T13:30:58;14.60;1.00
24450;DHT22;13349;50.984;5.822;2024-03-02T13:33:25;14.80;1.00
24450;DHT22;13349;50.984;5.822;2024-03-02T13:35:52;14.90;1.00
24450;DHT22;13349;50.984;5.822;2024-03-02T13:38:19;15.00;1.00
24450;DHT22;13349;50.984;5.822;2024-03-02T13:40:46;15.00;1.00
24450;DHT22;13349;50.984;5.822;2024-03-02T13:43:13;15.10;1.00
24450;DHT22;13349;50.984;5.822;2024-03-02T13:45:41;15.60;1.00
24450;DHT22;13349;50.984;5.822;2024-03-02T13:48:09;15.40;1.00
24450;DHT22;13349;50.984;5.822;2024-03-02T13:50:36;15.20;1.00
24450;DHT22;13349;50.984;5.822;2024-03-02T13:53:03;15.10;1.00
24450;DHT22;13349;50.984;5.822;2024-03-02T13:55:31;14.60;1.00
24450;DHT22;13349;50.984;5.822;2024-03-02T13:57:58;14.60;1.00
24450;DHT22;13349;50.984;5.822;2024-03-02T14:00:25;14.40;1.00
24450;DHT22;13349;50.984;5.822;2024-03-02T14:02:52;14.60;1.00
24450;DHT22;13349;50.984;5.822;2024-03-02T14:05:20;14.70;1.00
24450;DHT22;13349;50.984;5.822;2024-03-02T14:07:47;14.80;1.00
24450;DHT22;13349;50.984;5.822;2024-03-02T14:10:14;15.00;1.00
24450;DHT22;13349;50.984;5.822;2024-03-02T14:12:43;15.40;1.00
24450;DHT22;13349;50.984;5.822;2024-03-02T14:15:10;15.30;1.00
24450;DHT22;13349;50.984;5.822;2024-03-02T14:17:37;15.20;1.00
24450;DHT22;13349;50.984;5.822;2024-03-02T14:20:07;15.00;1.00
24450;DHT22;13349;50.984;5.822;2024-03-02T14:22:37;14.90;1.00
24450;DHT22;13349;50.984;5.822;2024-03-02T14:25:04;14.70;1.00
24450;DHT22;13349;50.984;5.822;2024-03-02T14:27:31;14.50;1.00
24450;DHT22;13349;50.984;5.822;2024-03-02T14:29:58;14.40;1.00
24450;DHT22;13349;50.984;5.822;2024-03-02T14:32:26;14.70;1.00
24450;DHT22;13349;50.984;5.822;2024-03-02T14:34:53;14.80;1.00
24450;DHT22;13349;50.984;5.822;2024-03-02T14:37:19;15.10;1.00
24450;DHT22;13349;50.984;5.822;2024-03-02T14:39:48;15.40;1.00
24450;DHT22;13349;50.984;5.822;2024-03-02T14:42:15;15.40;1.00
24450;DHT22;13349;50.984;5.822;2024-03-02T14:44:42;15.40;1.00
24450;DHT22;13349;50.984;5.822;2024-03-02T14:47:09;15.00;1.00
24450;DHT22;13349;50.984;5.822;2024-03-02T14:49:36;14.80;1.00
24450;DHT22;13349;50.984;5.822;2024-03-02T14:52:05;14.50;1.00
24450;DHT22;13349;50.984;5.822;2024-03-02T14:54:33;14.50;1.00
24450;DHT22;13349;50.984;5.822;2024-03-02T14:57:02;14.60;1.00
24450;DHT22;13349;50.984;5.822;2024-03-02T14:59:29;14.40;1.00
24450;DHT22;13349;50.984;5.822;2024-03-02T15:01:56;14.40;1.00
24450;DHT22;13349;50.984;5.822;2024-03-02T15:04:23;14.30;1.00
24450;DHT22;13349;50.984;5.822;2024-03-02T15:06:50;14.20;1.00
24450;DHT22;13349;50.984;5.822;2024-03-02T15:09:17;14.20;1.00
24450;DHT22;13349;50.984;5.822;2024-03-02T15:11:45;14.10;1.00
24450;DHT22;13349;50.984;5.822;2024-03-02T15:14:13;14.10;1.00
24450;DHT22;13349;50.984;5.822;2024-03-02T15:16:40;14.20;1.00
24450;DHT22;13349;50.984;5.822;2024-03-02T15:19:07;14.10;1.00
24450;DHT22;13349;50.984;5.822;2024-03-02T15:21:34;14.00;1.00
24450;DHT22;13349;50.984;5.822;2024-03-02T15:24:01;13.80;1.00
24450;DHT22;13349;50.984;5.822;2024-03-02T15:26:28;13.70;1.00
24450;DHT22;13349;50.984;5.822;2024-03-02T15:28:55;13.80;1.00
24450;DHT22;13349;50.984;5.822;2024-03-02T15:31:25;13.70;1.00
24450;DHT22;13349;50.984;5.822;2024-03-02T15:33:52;13.70;1.00
24450;DHT22;13349;50.984;5.822;2024-03-02T15:36:21;13.70;1.00
24450;DHT22;13349;50.984;5.822;2024-03-02T15:38:48;13.80;1.00
24450;DHT22;13349;50.984;5.822;2024-03-02T15:41:15;13.80;1.00
24450;DHT22;13349;50.984;5.822;2024-03-02T15:43:41;13.80;1.00
24450;DHT22;13349;50.984;5.822;2024-03-02T15:46:08;13.70;1.00
24450;DHT22;13349;50.984;5.822;2024-03-02T15:48:37;13.70;1.00
24450;DHT22;13349;50.984;5.822;2024-03-02T15:51:04;13.80;1.00
24450;DHT22;13349;50.984;5.822;2024-03-02T15:53:31;13.80;1.00
24450;DHT22;13349;50.984;5.822;2024-03-02T15:55:58;13.70;1.00